Time;durP1;ratioP1;P1;durP2;ratioP2;P2;SDS_P1;SDS_P2;PMS_P1;PMS_P2;Temp;Humidity;BMP_temperature;BMP_pressure;BME280_temperature;BME280_humidity;BME280_pressure;Samples;Min_cycle;Max_cycle;Signal;HPM_P1;HPM_P2
2021/12/09 13:14:48;;;;;;;25.80;13.50;;;;;;;-3.39;93.83;98552.67;99360;1339;615001;-25
2021/12/09 13:17:26;;;;;;;14.00;6.90;;;;;;;-2.26;91.74;98550.29;100650;1330;62230;-23
2021/12/09 13:20:03;;;;;;;21.90;10.50;;;;;;;-1.14;87.19;98549.37;101064;1326;61819;-24
2021/12/09 13:22:38;;;;;;;18.90;9.80;;;;;;;-0.68;84.20;98549.66;101273;1323;72534;-24
2021/12/09 13:25:29;;;;;;;18.30;9.80;;;;;;;-0.80;83.32;98550.86;101308;1326;76159;-24
2021/12/09 13:36:02;;;;;;;11.80;6.10;;;;;;;-0.40;81.24;98568.06;101203;1323;74022;-24
2021/12/09 13:47:37;;;;;;;1.90;1.60;;;;;;;-0.39;80.41;98578.94;101294;1330;61974;-24
2021/12/09 13:55:19;;;;;;;8.20;4.30;;;;;;;-0.65;83.60;98597.42;101187;1323;74557;-23
2021/12/09 13:57:54;;;;;;;7.20;4.40;;;;;;;-0.09;81.70;98602.35;101002;1326;61463;-23
2021/12/09 14:00:24;;;;;;;13.10;5.60;;;;;;;-0.03;80.97;98602.80;101202;1323;61898;-24
2021/12/09 14:02:54;;;;;;;11.70;6.70;;;;;;;-0.29;80.97;98601.86;101454;1323;74907;-24
2021/12/09 14:05:22;;;;;;;14.70;8.00;;;;;;;-0.63;81.98;98598.58;101311;1323;74918;-24
2021/12/09 14:08:02;;;;;;;7.40;4.20;;;;;;;-0.69;82.33;98594.69;101572;1323;73440;-24
2021/12/09 14:10:32;;;;;;;7.30;3.60;;;;;;;-0.07;80.66;98595.27;101319;1327;61384;-24
2021/12/09 14:13:06;;;;;;;13.20;8.30;;;;;;;0.04;79.41;98592.73;101236;1326;62389;-24
2021/12/09 14:15:39;;;;;;;11.40;5.70;;;;;;;-0.23;80.06;98592.08;101291;1323;73855;-24
2021/12/09 14:18:13;;;;;;;9.10;5.80;;;;;;;-0.38;81.15;98590.50;100941;1326;76166;-24
2021/12/09 14:20:40;;;;;;;12.60;7.00;;;;;;;-0.67;81.97;98597.70;101116;1326;73394;-24
2021/12/09 14:23:07;;;;;;;8.00;4.40;;;;;;;-0.92;82.63;98600.45;101280;1325;61688;-24
2021/12/09 14:25:35;;;;;;;17.30;7.60;;;;;;;-0.50;82.42;98604.48;101276;1326;62355;-24
2021/12/09 14:28:08;;;;;;;9.90;5.80;;;;;;;0.06;80.96;98609.34;101230;1326;73383;-24
2021/12/09 14:30:36;;;;;;;12.00;7.40;;;;;;;-0.08;80.32;98606.95;100718;1329;75947;-24
2021/12/09 14:33:03;;;;;;;11.10;6.40;;;;;;;-0.27;80.86;98610.17;101145;1326;73484;-24
2021/12/09 14:35:42;;;;;;;10.10;5.20;;;;;;;-0.60;81.59;98609.86;100965;1326;61109;-23
2021/12/09 14:38:10;;;;;;;6.90;4.10;;;;;;;-0.85;82.82;98613.10;101671;1314;61190;-24
2021/12/09 14:40:42;;;;;;;11.50;6.00;;;;;;;-0.35;82.66;98619.70;102067;1314;73794;-24
2021/12/09 14:43:12;;;;;;;11.90;5.60;;;;;;;0.08;80.46;98619.88;101658;1316;74890;-24
2021/12/09 14:45:54;;;;;;;4.60;2.90;;;;;;;0.09;80.26;98624.07;101640;1313;74493;-23
2021/12/09 14:48:31;;;;;;;7.10;4.60;;;;;;;-0.17;81.10;98618.59;101764;1314;61249;-24
2021/12/09 14:51:15;;;;;;;4.80;2.90;;;;;;;-0.43;82.22;98625.17;101731;1318;61140;-24
2021/12/09 14:53:46;;;;;;;3.70;2.60;;;;;;;-0.65;82.99;98624.20;102019;1314;73818;-24
2021/12/09 14:56:22;;;;;;;6.00;4.00;;;;;;;-0.12;82.27;98623.31;101861;1316;76071;-24
2021/12/09 14:58:50;;;;;;;12.90;7.30;;;;;;;0.34;80.35;98625.20;101680;1320;75486;-24
2021/12/09 15:01:20;;;;;;;11.90;6.60;;;;;;;0.29;80.11;98629.36;101615;1316;61198;-24
2021/12/09 15:04:03;;;;;;;14.20;6.90;;;;;;;0.03;81.06;98628.29;102049;1314;61311;-24
2021/12/09 15:06:38;;;;;;;8.80;4.30;;;;;;;-0.28;81.95;98633.06;101953;1316;74898;-25
2021/12/09 15:09:20;;;;;;;8.50;3.30;;;;;;;-0.55;82.82;98635.74;102031;1316;76518;-24
2021/12/09 15:11:52;;;;;;;5.20;2.90;;;;;;;-0.14;82.76;98631.75;101968;1316;74420;-24
2021/12/09 15:14:28;;;;;;;8.40;4.20;;;;;;;0.42;80.79;98632.83;101692;1319;61208;-24
2021/12/09 15:17:13;;;;;;;18.70;8.70;;;;;;;0.44;80.44;98632.26;101830;1319;62027;-24
2021/12/09 15:19:45;;;;;;;31.00;13.50;;;;;;;0.14;80.79;98635.80;102167;1313;73318;-24
2021/12/09 15:22:19;;;;;;;23.10;12.40;;;;;;;-0.14;81.76;98635.52;101721;1316;75062;-24
2021/12/09 15:25:14;;;;;;;11.90;6.30;;;;;;;-0.40;82.62;98634.77;101704;1316;74518;-24
2021/12/09 15:28:03;;;;;;;20.30;9.80;;;;;;;0.14;82.08;98638.19;101646;1316;61179;-26
2021/12/09 15:30:49;;;;;;;21.00;12.10;;;;;;;0.65;80.32;98642.52;101707;1316;61580;-24
2021/12/09 15:33:23;;;;;;;18.60;9.50;;;;;;;0.54;79.93;98642.38;101801;1316;74903;-24
2021/12/09 15:36:11;;;;;;;14.10;6.90;;;;;;;0.24;80.98;98645.24;101917;1316;75507;-24
2021/12/09 15:38:45;;;;;;;9.70;5.40;;;;;;;-0.12;81.66;98650.13;101890;1313;74452;-24
2021/12/09 15:41:24;;;;;;;8.10;4.20;;;;;;;-0.37;82.68;98652.05;101741;1314;63026;-24
2021/12/09 15:43:53;;;;;;;10.40;5.10;;;;;;;0.13;82.25;98656.84;101636;1313;61427;-24
2021/12/09 15:46:20;;;;;;;12.20;6.80;;;;;;;0.64;80.36;98659.98;101786;1316;74314;-24
2021/12/09 15:48:48;;;;;;;17.90;9.80;;;;;;;0.64;79.94;98660.55;102088;1314;76112;-24
2021/12/09 15:51:23;;;;;;;16.20;8.80;;;;;;;0.39;79.76;98664.40;102090;1313;74350;-23
2021/12/09 15:54:02;;;;;;;12.40;6.50;;;;;;;0.07;80.62;98665.66;101784;1317;61198;-23
2021/12/09 15:56:35;;;;;;;20.10;9.60;;;;;;;-0.19;81.70;98658.77;101809;1316;61479;-24
2021/12/09 15:59:04;;;;;;;;;;;;;;;-0.41;82.56;98656.97;101707;1316;73947;-23
2021/12/09 16:01:31;;;;;;;13.40;6.70;;;;;;;0.08;82.90;98657.07;101968;1313;75156;-23
2021/12/09 16:03:59;;;;;;;10.80;5.30;;;;;;;0.82;80.32;98649.08;102163;1313;74226;-23
2021/12/09 16:06:26;;;;;;;20.60;11.10;;;;;;;0.96;79.09;98637.98;102189;1314;61606;-23
2021/12/09 16:08:53;;;;;;;17.80;8.10;;;;;;;0.72;78.69;98633.70;102307;1313;61095;-23
2021/12/09 16:11:22;;;;;;;8.90;5.10;;;;;;;0.34;79.71;98621.27;102300;1313;74811;-24
2021/12/09 16:13:55;;;;;;;16.50;10.00;;;;;;;-0.04;80.98;98604.35;102286;1313;76061;-24
2021/12/09 16:16:22;;;;;;;8.50;4.60;;;;;;;-0.41;81.94;98598.46;102060;1316;74333;-24
2021/12/09 16:18:51;;;;;;;20.40;11.00;;;;;;;-0.40;82.74;98597.74;102299;1313;62986;-24
2021/12/09 16:21:21;;;;;;;26.30;13.20;;;;;;;0.12;81.03;98594.93;101812;1316;61943;-24
2021/12/09 16:23:49;;;;;;;23.80;12.40;;;;;;;0.28;80.43;98597.43;101778;1316;73921;-23
2021/12/09 16:26:16;;;;;;;22.30;8.90;;;;;;;0.05;80.74;98597.13;101916;1316;75951;-23
2021/12/09 16:28:44;;;;;;;13.00;6.20;;;;;;;-0.19;81.72;98597.85;102272;1313;72150;-22
2021/12/09 16:31:11;;;;;;;12.00;7.80;;;;;;;-0.43;82.23;98602.80;102134;1316;61132;-21
2021/12/09 16:33:40;;;;;;;12.60;6.10;;;;;;;-0.53;83.34;98606.67;102297;1313;62176;-22
2021/12/09 16:36:08;;;;;;;18.30;8.60;;;;;;;0.09;82.68;98605.48;102184;1314;74763;-21
2021/12/09 16:38:38;;;;;;;12.60;7.60;;;;;;;0.49;80.60;98598.87;101637;1316;76053;-22
2021/12/09 16:41:06;;;;;;;10.60;5.50;;;;;;;0.22;80.45;98593.27;101815;1319;73641;-22
2021/12/09 16:43:34;;;;;;;6.60;4.30;;;;;;;0.01;81.57;98595.44;101921;1316;61409;-22
2021/12/09 16:46:03;;;;;;;15.70;7.70;;;;;;;-0.23;82.28;98598.34;102052;1314;61172;-22
2021/12/09 16:48:32;;;;;;;10.30;5.20;;;;;;;-0.33;83.35;98598.64;101805;1314;75111;-22
2021/12/09 16:51:00;;;;;;;6.60;2.80;;;;;;;0.18;82.29;98606.95;101707;1316;75893;-23
2021/12/09 16:53:32;;;;;;;6.40;3.10;;;;;;;0.55;80.49;98611.20;101657;1314;73540;-23
2021/12/09 16:56:07;;;;;;;8.00;4.80;;;;;;;0.47;80.22;98615.55;101876;1317;61118;-23
2021/12/09 16:58:38;;;;;;;3.60;2.10;;;;;;;0.26;81.21;98621.29;101759;1314;61141;-23
2021/12/09 17:01:08;;;;;;;15.90;6.70;;;;;;;-0.04;82.26;98620.75;101691;1316;74951;-23
2021/12/09 17:03:35;;;;;;;7.20;4.50;;;;;;;-0.11;82.83;98622.05;101696;1314;76349;-23
2021/12/09 17:06:14;;;;;;;13.50;6.80;;;;;;;0.46;81.49;98629.27;102013;1313;73510;-23
2021/12/09 17:08:42;;;;;;;9.00;5.00;;;;;;;0.58;80.63;98631.94;102104;1316;61214;-22
2021/12/09 17:11:08;;;;;;;8.80;4.70;;;;;;;0.40;80.48;98635.66;102238;1313;61194;-23
2021/12/09 17:13:37;;;;;;;8.50;4.10;;;;;;;0.17;81.79;98640.27;101874;1316;74979;-22
2021/12/09 17:16:05;;;;;;;6.80;3.40;;;;;;;-0.09;82.55;98636.85;102283;1314;75909;-23
2021/12/09 17:18:32;;;;;;;9.40;5.20;;;;;;;0.00;82.99;98636.75;102185;1314;73244;-22
2021/12/09 17:20:59;;;;;;;12.60;6.10;;;;;;;0.60;81.18;98643.42;102281;1313;61992;-22
2021/12/09 17:23:26;;;;;;;11.30;6.10;;;;;;;0.81;80.75;98646.91;102282;1316;62033;-22
2021/12/09 17:25:54;;;;;;;10.50;5.70;;;;;;;0.64;80.73;98644.65;102274;1313;74851;-22
2021/12/09 17:28:21;;;;;;;7.70;3.90;;;;;;;0.34;81.13;98642.59;102299;1313;75168;-22
2021/12/09 17:30:50;;;;;;;7.70;4.20;;;;;;;0.05;82.41;98639.81;102181;1313;72657;-22
2021/12/09 17:33:22;;;;;;;4.90;3.50;;;;;;;-0.06;83.43;98630.38;102120;1314;62796;-22
2021/12/09 17:35:49;;;;;;;11.00;6.00;;;;;;;0.52;82.24;98632.39;101927;1316;62071;-22
2021/12/09 17:38:26;;;;;;;11.70;6.40;;;;;;;0.81;80.62;98631.55;102257;1313;75475;-22
2021/12/09 17:40:53;;;;;;;13.90;7.50;;;;;;;0.70;80.74;98629.47;102274;1313;75220;-23
2021/12/09 17:43:21;;;;;;;3.90;2.60;;;;;;;0.42;81.33;98624.47;101939;1316;71547;-22
2021/12/09 17:45:48;;;;;;;4.70;3.20;;;;;;;0.13;82.33;98620.51;102314;1313;61191;-22
2021/12/09 17:48:17;;;;;;;6.20;3.40;;;;;;;0.27;82.63;98615.63;102100;1317;61090;-22
2021/12/09 17:50:48;;;;;;;4.90;3.20;;;;;;;0.67;81.19;98611.87;102225;1316;75507;-22
2021/12/09 17:53:17;;;;;;;12.40;6.00;;;;;;;0.65;80.98;98616.55;101922;1316;75933;-23
2021/12/09 17:55:45;;;;;;;8.70;4.20;;;;;;;0.44;81.57;98622.67;101897;1316;74475;-23
2021/12/09 17:58:13;;;;;;;5.60;3.00;;;;;;;0.16;82.58;98613.71;102239;1317;61087;-22
2021/12/09 18:00:40;;;;;;;8.20;5.00;;;;;;;0.22;83.05;98613.23;101769;1316;61204;-22
2021/12/09 18:03:08;;;;;;;7.50;3.80;;;;;;;0.74;81.60;98609.28;101788;1316;75684;-22
2021/12/09 18:05:35;;;;;;;9.40;5.40;;;;;;;0.80;80.88;98604.58;101798;1317;76155;-22
2021/12/09 18:08:06;;;;;;;10.30;4.70;;;;;;;0.57;81.41;98607.05;102133;1313;73590;-22
2021/12/09 18:10:37;;;;;;;8.40;3.80;;;;;;;0.32;82.26;98610.23;102035;1314;61217;-22
2021/12/09 18:13:05;;;;;;;6.70;3.60;;;;;;;0.21;83.00;98606.98;101960;1317;61241;-23
2021/12/09 18:15:38;;;;;;;8.80;5.00;;;;;;;0.64;81.96;98603.65;101999;1316;75613;-22
2021/12/09 18:18:06;;;;;;;11.30;6.10;;;;;;;0.80;81.27;98609.55;101847;1316;74975;-24
2021/12/09 18:21:10;;;;;;;6.60;3.90;;;;;;;0.66;81.35;98608.52;101809;1318;73252;-26
2021/12/09 18:23:57;;;;;;;11.00;4.00;;;;;;;0.29;82.57;98605.11;101990;1313;61212;-23
2021/12/09 18:26:30;;;;;;;6.90;4.30;;;;;;;0.21;83.36;98608.35;102079;1313;61972;-24
2021/12/09 18:29:02;;;;;;;3.40;2.80;;;;;;;0.73;81.96;98611.77;101755;1320;74165;-21
2021/12/09 18:31:29;;;;;;;6.10;3.80;;;;;;;0.91;81.06;98609.88;101996;1316;76124;-21
2021/12/09 18:34:39;;;;;;;6.80;4.00;;;;;;;0.72;81.42;98612.85;102136;1320;73425;-23
2021/12/09 18:37:35;;;;;;;15.30;8.50;;;;;;;0.40;82.42;98612.61;102097;1316;61282;-24
2021/12/09 18:40:06;;;;;;;15.40;8.80;;;;;;;0.41;83.09;98611.73;102049;1316;61100;-25
2021/12/09 18:43:00;;;;;;;12.50;7.40;;;;;;;0.90;81.59;98615.08;101730;1319;75429;-23
2021/12/09 18:45:28;;;;;;;10.80;4.40;;;;;;;0.89;81.13;98613.05;101958;1314;75308;-23
2021/12/09 18:47:56;;;;;;;8.80;4.20;;;;;;;0.66;81.70;98610.22;101788;1316;72658;-23
2021/12/09 18:50:27;;;;;;;4.30;2.40;;;;;;;0.40;82.64;98607.67;102135;1313;61217;-23
2021/12/09 18:52:55;;;;;;;4.80;2.50;;;;;;;0.35;83.39;98601.21;101669;1319;61156;-23
2021/12/09 18:55:27;;;;;;;4.20;2.20;;;;;;;0.92;82.38;98598.17;102087;1314;74273;-23
2021/12/09 18:57:53;;;;;;;6.40;3.60;;;;;;;1.13;81.12;98599.89;101702;1315;74029;-22
2021/12/09 19:00:21;;;;;;;7.30;4.50;;;;;;;0.98;81.18;98602.14;102156;1313;74543;-23
2021/12/09 19:02:49;;;;;;;6.20;3.00;;;;;;;0.72;82.07;98598.81;101743;1316;61140;-23
2021/12/09 19:05:17;;;;;;;5.40;3.10;;;;;;;0.46;82.90;98589.11;102191;1319;61253;-22
2021/12/09 19:07:44;;;;;;;5.30;3.20;;;;;;;0.76;82.99;98589.06;101960;1316;75430;-23
2021/12/09 19:10:22;;;;;;;7.80;3.50;;;;;;;1.10;81.48;98581.75;102262;1313;75904;-23
2021/12/09 19:13:08;;;;;;;8.70;4.70;;;;;;;1.01;81.61;98582.54;102133;1316;74461;-23
2021/12/09 19:15:37;;;;;;;6.30;4.40;;;;;;;0.78;82.31;98580.74;101804;1316;61104;-22
2021/12/09 19:18:16;;;;;;;4.50;2.60;;;;;;;0.52;83.11;98591.06;101994;1312;61901;-22
2021/12/09 19:20:46;;;;;;;3.40;1.80;;;;;;;0.76;83.33;98593.17;101757;1316;75543;-23
2021/12/09 19:23:13;;;;;;;9.00;5.20;;;;;;;1.19;81.72;98592.59;102112;1319;74057;-22
2021/12/09 19:25:41;;;;;;;2.40;2.00;;;;;;;1.19;81.21;98594.47;102269;1313;74193;-22
2021/12/09 19:28:08;;;;;;;4.50;2.70;;;;;;;0.94;82.06;98593.64;102284;1313;61209;-22
2021/12/09 19:34:44;;;;;;;4.50;2.70;;;;;;;1.09;82.48;98606.40;102214;1317;74489;-21
2021/12/09 19:37:11;;;;;;;3.90;2.40;;;;;;;1.29;81.48;98608.34;102294;1319;75933;-21
2021/12/09 19:39:38;;;;;;;11.10;5.00;;;;;;;1.15;81.66;98604.76;102212;1313;74560;-21
2021/12/09 19:42:05;;;;;;;6.10;2.20;;;;;;;0.92;82.20;98597.68;102257;1313;61175;-21
2021/12/09 19:44:33;;;;;;;7.00;3.20;;;;;;;0.73;83.25;98595.17;102228;1319;62737;-21
2021/12/09 19:47:01;;;;;;;5.30;3.30;;;;;;;1.17;82.46;98596.30;102167;1313;75549;-21
2021/12/09 19:49:29;;;;;;;3.20;1.90;;;;;;;1.44;81.22;98596.30;102117;1313;75019;-21
2021/12/09 19:51:56;;;;;;;5.50;3.50;;;;;;;1.33;81.17;98598.72;102110;1314;73445;-21
2021/12/09 19:54:23;;;;;;;7.80;3.40;;;;;;;1.09;81.93;98599.42;102057;1316;61286;-21
2021/12/09 19:56:50;;;;;;;6.10;3.00;;;;;;;0.82;82.84;98596.77;102147;1313;61185;-21
2021/12/09 19:59:17;;;;;;;2.80;1.30;;;;;;;0.84;83.43;98599.09;102097;1314;75609;-20
2021/12/09 20:01:45;;;;;;;10.80;4.80;;;;;;;1.35;82.02;98600.36;102254;1313;75507;-21
2021/12/09 20:04:14;;;;;;;7.80;3.50;;;;;;;1.45;81.15;98599.50;101688;1317;74411;-21
2021/12/09 20:06:54;;;;;;;10.40;3.70;;;;;;;1.22;81.76;98602.22;102104;1316;61204;-21
2021/12/09 20:09:21;;;;;;;6.50;2.70;;;;;;;0.99;82.47;98599.41;101716;1316;61192;-21
2021/12/09 20:11:49;;;;;;;4.80;2.30;;;;;;;0.79;83.46;98592.84;101670;1317;75750;-21
2021/12/09 20:14:16;;;;;;;7.80;3.80;;;;;;;1.18;82.76;98593.66;102055;1316;75229;-21
2021/12/09 20:16:45;;;;;;;3.50;2.00;;;;;;;1.34;81.94;98589.12;102165;1313;74497;-21
2021/12/09 20:19:12;;;;;;;4.70;2.60;;;;;;;1.21;82.06;98582.24;102037;1320;61116;-21
2021/12/09 20:21:55;;;;;;;8.40;3.30;;;;;;;0.93;82.71;98580.20;101984;1313;61072;-21
2021/12/09 20:24:22;;;;;;;6.60;3.90;;;;;;;0.88;83.69;98578.92;102056;1319;75799;-21
2021/12/09 20:26:50;;;;;;;7.50;4.10;;;;;;;1.36;82.29;98577.52;102066;1319;76118;-21
2021/12/09 20:29:17;;;;;;;8.30;4.90;;;;;;;1.55;81.24;98573.31;102002;1319;74103;-20
2021/12/09 20:31:44;;;;;;;5.90;2.30;;;;;;;1.38;81.49;98573.51;102004;1313;61138;-21
2021/12/09 20:34:14;;;;;;;3.70;2.30;;;;;;;1.05;82.47;98566.80;102187;1313;61072;-20
2021/12/09 20:36:41;;;;;;;3.50;2.50;;;;;;;0.81;83.50;98563.85;102235;1316;75588;-20
2021/12/09 20:39:08;;;;;;;3.80;2.30;;;;;;;1.16;83.26;98561.80;101895;1316;75389;-20
2021/12/09 20:41:35;;;;;;;7.60;4.60;;;;;;;1.39;82.09;98560.98;102077;1319;72877;-20
2021/12/09 20:44:03;;;;;;;7.80;4.70;;;;;;;1.26;82.11;98554.63;102185;1313;61703;-20
2021/12/09 20:46:30;;;;;;;5.20;2.80;;;;;;;1.04;82.78;98549.07;102139;1319;61907;-21
2021/12/09 20:48:57;;;;;;;5.20;2.60;;;;;;;0.87;83.63;98552.96;102322;1314;75416;-20
2021/12/09 20:51:24;;;;;;;4.90;3.10;;;;;;;1.29;82.73;98553.45;102233;1314;76149;-21
2021/12/09 20:53:51;;;;;;;5.30;3.00;;;;;;;1.54;81.55;98555.94;101946;1316;74594;-21
2021/12/09 20:56:18;;;;;;;5.00;2.80;;;;;;;1.41;81.61;98558.33;102212;1314;61175;-21
2021/12/09 20:58:45;;;;;;;5.70;2.60;;;;;;;1.13;82.28;98556.81;102239;1317;61084;-22
2021/12/09 21:01:12;;;;;;;2.00;1.50;;;;;;;0.89;83.37;98562.95;102216;1317;75619;-23
2021/12/09 21:03:39;;;;;;;6.60;3.00;;;;;;;1.19;83.19;98564.22;101986;1314;76175;-23
2021/12/09 21:06:06;;;;;;;5.10;3.40;;;;;;;1.67;81.55;98569.45;101984;1316;74516;-24
2021/12/09 21:08:33;;;;;;;4.80;2.70;;;;;;;1.64;80.95;98567.57;102114;1314;61173;-23
2021/12/09 21:11:01;;;;;;;6.80;2.70;;;;;;;1.43;81.29;98566.61;101997;1316;61187;-23
2021/12/09 21:13:28;;;;;;;3.70;2.20;;;;;;;1.15;82.33;98565.61;101897;1316;75687;-23
2021/12/09 21:15:56;;;;;;;4.10;2.70;;;;;;;0.91;83.45;98572.27;102084;1317;75004;-23
2021/12/09 21:18:23;;;;;;;4.30;2.90;;;;;;;1.25;83.05;98572.13;102084;1319;74462;-23
2021/12/09 21:20:52;;;;;;;9.30;3.30;;;;;;;1.60;81.57;98580.41;102113;1319;61193;-23
2021/12/09 21:23:24;;;;;;;1.90;1.50;;;;;;;1.54;81.34;98575.92;101802;1319;61145;-23
2021/12/09 21:25:51;;;;;;;6.10;2.30;;;;;;;1.28;81.99;98568.04;101686;1316;74690;-23
2021/12/09 21:28:20;;;;;;;3.70;1.90;;;;;;;1.03;83.07;98562.45;101882;1313;341676;-23
2021/12/09 21:30:52;;;;;;;5.30;2.90;;;;;;;1.13;83.48;98565.70;102124;1313;74365;-23
2021/12/09 21:33:25;;;;;;;3.90;2.70;;;;;;;1.58;81.69;98569.21;101772;1319;62181;-22
2021/12/09 21:35:52;;;;;;;5.20;2.10;;;;;;;1.60;81.27;98567.79;101968;1313;61945;-22
2021/12/09 21:38:19;;;;;;;4.90;3.10;;;;;;;1.34;81.90;98561.25;102006;1314;75591;-22
2021/12/09 21:40:46;;;;;;;3.10;2.20;;;;;;;1.05;83.12;98552.27;102121;1316;74027;-22
2021/12/09 21:43:13;;;;;;;2.40;1.50;;;;;;;1.15;83.61;98554.15;102184;1313;74417;-22
2021/12/09 21:45:40;;;;;;;5.80;2.90;;;;;;;1.42;82.18;98549.39;102108;1314;61212;-23
2021/12/09 21:48:07;;;;;;;3.10;2.50;;;;;;;1.33;82.41;98546.58;102002;1320;61123;-22
2021/12/09 21:50:33;;;;;;;3.00;1.60;;;;;;;1.14;83.00;98541.05;102066;1317;74632;-22
2021/12/09 21:53:00;;;;;;;3.00;1.80;;;;;;;0.90;83.81;98532.30;102123;1319;75952;-22
2021/12/09 21:55:27;;;;;;;3.80;2.90;;;;;;;1.20;83.56;98527.88;102122;1316;74614;-22
2021/12/09 21:57:55;;;;;;;1.60;1.20;;;;;;;1.45;82.24;98533.11;102039;1313;61258;-22
2021/12/09 22:00:24;;;;;;;4.80;2.30;;;;;;;1.37;82.22;98527.39;102093;1313;61194;-22
2021/12/09 22:02:51;;;;;;;3.70;2.10;;;;;;;1.15;82.93;98518.24;101697;1316;75614;-22
2021/12/09 22:05:20;;;;;;;5.10;1.80;;;;;;;1.08;83.61;98517.38;102045;1313;76446;-22
2021/12/09 22:07:47;;;;;;;2.10;1.80;;;;;;;1.52;82.16;98529.83;101872;1314;74833;-22
2021/12/09 22:10:15;;;;;;;3.20;1.80;;;;;;;1.61;81.56;98527.67;101869;1320;61969;-22
2021/12/09 22:12:50;;;;;;;4.00;2.70;;;;;;;1.42;82.01;98524.02;101865;1316;61228;-22
2021/12/09 22:15:18;;;;;;;3.30;1.80;;;;;;;1.17;82.86;98526.02;102342;1317;73859;-22
2021/12/09 22:17:46;;;;;;;4.80;2.40;;;;;;;1.06;83.57;98524.83;102162;1317;74174;-22
2021/12/09 22:20:15;;;;;;;3.30;1.90;;;;;;;1.55;82.34;98519.94;102295;1314;74468;-22
2021/12/09 22:22:42;;;;;;;3.80;2.40;;;;;;;1.72;81.53;98522.14;102107;1319;61981;-22
2021/12/09 22:25:09;;;;;;;3.70;1.90;;;;;;;1.56;81.62;98528.81;102261;1318;61207;-22
2021/12/09 22:27:37;;;;;;;5.30;3.00;;;;;;;1.32;82.24;98530.20;101789;1319;75640;-22
2021/12/09 22:30:05;;;;;;;3.50;2.10;;;;;;;1.07;83.21;98529.08;101734;1316;76258;-22
2021/12/09 22:32:33;;;;;;;5.20;2.90;;;;;;;1.37;83.02;98523.64;101766;1319;74361;-22
2021/12/09 22:35:00;;;;;;;3.20;1.90;;;;;;;1.71;81.58;98515.67;102207;1314;61326;-22
2021/12/09 22:37:27;;;;;;;4.40;2.70;;;;;;;1.62;81.62;98519.44;102152;1315;61151;-22
2021/12/09 22:39:55;;;;;;;3.50;2.10;;;;;;;1.38;82.20;98518.11;102147;1313;75516;-22
2021/12/09 22:42:22;;;;;;;2.80;1.50;;;;;;;1.08;83.46;98518.42;101983;1313;75993;-22
2021/12/09 22:44:49;;;;;;;3.00;1.60;;;;;;;1.37;83.06;98519.20;101930;1314;72989;-22
2021/12/09 22:47:19;;;;;;;4.30;2.40;;;;;;;1.69;81.88;98528.27;101919;1319;61235;-23
2021/12/09 22:49:50;;;;;;;5.10;2.90;;;;;;;1.62;81.64;98526.45;102211;1317;61132;-22
2021/12/09 22:52:19;;;;;;;5.30;3.00;;;;;;;1.35;82.44;98513.79;102158;1319;75525;-22
2021/12/09 22:54:49;;;;;;;4.10;2.80;;;;;;;1.16;83.50;98509.46;102051;1317;76194;-22
2021/12/09 22:57:16;;;;;;;2.40;1.50;;;;;;;1.48;82.88;98499.76;102106;1320;74329;-21
2021/12/09 22:59:43;;;;;;;5.00;2.90;;;;;;;1.70;81.59;98492.98;102166;1317;62070;-21
2021/12/09 23:02:10;;;;;;;3.80;2.40;;;;;;;1.57;81.90;98494.36;102097;1316;62027;-22
2021/12/09 23:04:38;;;;;;;2.80;1.80;;;;;;;1.32;82.68;98494.80;101806;1319;75579;-22
2021/12/09 23:07:05;;;;;;;5.10;2.40;;;;;;;1.25;83.65;98493.63;102178;1319;76101;-22
2021/12/09 23:09:32;;;;;;;4.90;3.30;;;;;;;1.63;82.22;98495.40;102098;1316;74323;-21
2021/12/09 23:11:59;;;;;;;4.30;2.70;;;;;;;1.72;81.76;98496.27;102062;1319;61182;-22
2021/12/09 23:14:41;;;;;;;4.90;3.60;;;;;;;1.51;82.19;98498.27;101804;1319;61227;-22
2021/12/09 23:17:12;;;;;;;1.40;1.20;;;;;;;1.21;83.17;98504.80;101813;1317;74923;-22
2021/12/09 23:19:40;;;;;;;3.70;2.70;;;;;;;1.38;83.19;98511.08;102065;1319;75972;-22
2021/12/09 23:22:07;;;;;;;3.00;1.70;;;;;;;1.83;81.86;98503.08;101671;1316;74351;-21
2021/12/09 23:24:34;;;;;;;2.00;1.50;;;;;;;1.83;81.39;98495.33;102129;1318;61134;-22
2021/12/09 23:27:01;;;;;;;4.50;1.90;;;;;;;1.62;81.95;98488.80;102093;1317;61146;-22
2021/12/09 23:29:28;;;;;;;2.60;1.50;;;;;;;1.30;83.07;98488.77;101984;1313;74700;-21
2021/12/09 23:31:55;;;;;;;4.40;2.70;;;;;;;1.27;83.83;98490.75;102069;1317;76024;-21
2021/12/09 23:34:22;;;;;;;4.70;2.50;;;;;;;1.73;82.45;98486.66;102052;1317;74833;-21
2021/12/09 23:36:50;;;;;;;3.70;2.10;;;;;;;1.83;81.65;98486.79;102194;1319;61192;-21
2021/12/09 23:39:20;;;;;;;5.40;3.40;;;;;;;1.65;81.97;98475.96;102180;1319;61154;-21
2021/12/09 23:41:47;;;;;;;4.20;3.00;;;;;;;1.37;82.94;98478.48;102307;1319;75606;-21
2021/12/09 23:44:15;;;;;;;2.20;1.30;;;;;;;1.28;84.03;98480.81;102290;1319;75122;-21
2021/12/09 23:46:44;;;;;;;2.30;1.80;;;;;;;1.75;82.81;98480.20;101763;1319;74540;-22
2021/12/09 23:49:12;;;;;;;2.60;2.10;;;;;;;1.90;81.89;98477.19;102101;1320;61163;-22
2021/12/09 23:51:42;;;;;;;3.80;2.50;;;;;;;1.76;82.17;98473.65;101923;1317;62201;-21
2021/12/09 23:54:09;;;;;;;2.50;1.70;;;;;;;1.49;82.92;98469.44;101952;1316;75756;-22
2021/12/09 23:56:37;;;;;;;2.50;2.10;;;;;;;1.33;83.76;98473.04;102139;1319;76111;-22
2021/12/09 23:59:04;;;;;;;3.00;1.80;;;;;;;1.70;83.05;98474.34;102210;1319;73433;-22
